Time;durP1;ratioP1;P1;durP2;ratioP2;P2;SDS_P1;SDS_P2;PMS_P1;PMS_P2;Temp;Humidity;BMP_temperature;BMP_pressure;BME280_temperature;BME280_humidity;BME280_pressure;Samples;Min_cycle;Max_cycle;Signal;HPM_P1;HPM_P2
2023/12/30 00:01:41;;;;;;;5.85;1.67;;;;;;;7.42;100.00;100601.88;4760036;30;20040;-74
2023/12/30 00:04:06;;;;;;;7.50;1.35;;;;;;;7.25;100.00;100594.72;4763508;30;20040;-75
2023/12/30 00:06:33;;;;;;;7.35;1.35;;;;;;;7.27;100.00;100606.31;4759478;30;20050;-75
2023/12/30 00:08:58;;;;;;;3.38;1.30;;;;;;;7.23;100.00;100613.78;4757197;30;20119;-75
2023/12/30 00:11:24;;;;;;;5.07;1.00;;;;;;;7.22;100.00;100612.97;4760157;30;20547;-75
2023/12/30 00:13:49;;;;;;;3.38;1.10;;;;;;;7.20;100.00;100617.28;4760605;30;20036;-76
2023/12/30 00:16:15;;;;;;;3.38;1.40;;;;;;;7.23;100.00;100610.97;4758957;30;20108;-76
2023/12/30 00:18:40;;;;;;;3.13;1.08;;;;;;;7.25;100.00;100622.56;4758038;30;20040;-76
2023/12/30 00:21:06;;;;;;;8.95;1.20;;;;;;;7.24;100.00;100609.84;4759073;30;20039;-76
2023/12/30 00:23:31;;;;;;;4.38;1.50;;;;;;;7.30;100.00;100622.31;4761372;30;20088;-76
2023/12/30 00:25:57;;;;;;;3.38;1.10;;;;;;;7.24;100.00;100618.19;4756158;30;20063;-76
2023/12/30 00:28:22;;;;;;;4.93;1.25;;;;;;;7.16;100.00;100619.19;4761055;30;20067;-76
2023/12/30 00:30:48;;;;;;;5.03;1.13;;;;;;;7.10;100.00;100618.63;4761389;30;20024;-76
2023/12/30 00:33:13;;;;;;;4.85;1.25;;;;;;;7.21;100.00;100621.66;4759094;30;20036;-75
2023/12/30 00:35:39;;;;;;;4.80;1.48;;;;;;;7.17;100.00;100620.78;4759686;30;20035;-75
2023/12/30 00:38:04;;;;;;;5.40;1.52;;;;;;;7.08;100.00;100618.19;4762305;29;20043;-76
2023/12/30 00:40:29;;;;;;;2.55;1.17;;;;;;;7.15;100.00;100620.31;4755152;30;20477;-76
2023/12/30 00:42:55;;;;;;;3.75;1.80;;;;;;;7.16;100.00;100619.19;4754050;30;20041;-76
2023/12/30 00:45:20;;;;;;;3.47;1.20;;;;;;;7.19;100.00;100626.78;4767331;30;20039;-76
2023/12/30 00:47:45;;;;;;;4.20;1.00;;;;;;;7.15;100.00;100618.38;4754948;30;20076;-76
2023/12/30 00:50:11;;;;;;;2.33;0.88;;;;;;;7.13;100.00;100627.09;4767957;30;20118;-76
2023/12/30 00:52:36;;;;;;;2.95;1.00;;;;;;;7.12;100.00;100625.44;4759404;30;20067;-76
2023/12/30 00:55:01;;;;;;;3.00;1.58;;;;;;;7.08;100.00;100623.75;4759722;30;20457;-76
2023/12/30 00:57:27;;;;;;;7.03;1.80;;;;;;;6.99;100.00;100626.72;4760523;30;20074;-76
2023/12/30 00:59:52;;;;;;;3.95;0.93;;;;;;;6.88;100.00;100642.34;4762789;30;20035;-75
2023/12/30 01:02:17;;;;;;;3.58;1.27;;;;;;;6.83;100.00;100635.09;4759002;30;20368;-76
2023/12/30 01:04:42;;;;;;;3.03;1.15;;;;;;;6.92;100.00;100637.69;4757105;30;20567;-75
2023/12/30 01:07:08;;;;;;;5.82;1.73;;;;;;;6.98;100.00;100646.56;4760041;30;20036;-76
2023/12/30 01:09:33;;;;;;;3.60;1.10;;;;;;;6.86;100.00;100655.81;4763251;30;20043;-76
2023/12/30 01:11:59;;;;;;;2.20;1.33;;;;;;;6.99;100.00;100660.13;4755812;30;20040;-76
2023/12/30 01:14:24;;;;;;;13.55;1.55;;;;;;;6.90;100.00;100659.50;4761307;30;20044;-75
2023/12/30 01:16:49;;;;;;;11.05;1.67;;;;;;;6.77;100.00;100655.16;4751216;30;20040;-75
2023/12/30 01:19:15;;;;;;;3.90;1.00;;;;;;;6.83;100.00;100643.44;4751159;30;20051;-75
2023/12/30 01:21:40;;;;;;;5.60;1.00;;;;;;;6.95;100.00;100653.66;4758192;30;20063;-75
2023/12/30 01:24:05;;;;;;;4.45;1.15;;;;;;;6.96;100.00;100649.72;4762927;30;20491;-75
2023/12/30 01:26:31;;;;;;;2.70;1.05;;;;;;;6.84;100.00;100647.03;4773038;30;20524;-75
2023/12/30 01:28:56;;;;;;;10.40;1.70;;;;;;;6.76;100.00;100645.22;4762020;30;20058;-75
2023/12/30 01:31:21;;;;;;;7.35;1.48;;;;;;;6.72;100.00;100657.06;4764223;29;20480;-75
2023/12/30 01:33:47;;;;;;;8.40;1.70;;;;;;;6.78;100.00;100659.56;4767706;30;20038;-75
2023/12/30 01:36:12;;;;;;;1.73;1.58;;;;;;;6.76;100.00;100659.13;4762417;29;20036;-75
2023/12/30 01:38:38;;;;;;;4.97;1.35;;;;;;;6.78;100.00;100670.69;4758131;30;20489;-75
2023/12/30 01:41:03;;;;;;;2.30;0.93;;;;;;;6.65;100.00;100665.22;4759354;29;20402;-75
2023/12/30 01:43:30;;;;;;;7.05;1.00;;;;;;;6.70;100.00;100670.53;4760912;30;20040;-75
2023/12/30 01:46:03;;;;;;;5.70;0.82;;;;;;;6.76;100.00;100673.03;4756612;30;20395;-75
2023/12/30 01:48:29;;;;;;;3.10;1.10;;;;;;;6.65;100.00;100681.91;4755033;30;20051;-75
2023/12/30 01:50:59;;;;;;;7.00;2.17;;;;;;;6.78;100.00;100676.25;4758297;30;20119;-75
2023/12/30 01:53:26;;;;;;;1.80;0.75;;;;;;;6.78;100.00;100676.25;4760844;29;20043;-75
2023/12/30 01:55:52;;;;;;;11.00;1.30;;;;;;;6.67;100.00;100690.69;4778215;29;20407;-75
2023/12/30 01:58:21;;;;;;;3.22;0.90;;;;;;;6.75;100.00;100688.13;4764888;30;20042;-75
2023/12/30 02:00:51;;;;;;;7.93;1.20;;;;;;;6.75;100.00;100693.69;4763505;30;20122;-76
2023/12/30 02:03:18;;;;;;;7.35;1.67;;;;;;;6.71;100.00;100704.69;4762115;29;20043;-76
2023/12/30 02:05:46;;;;;;;4.60;1.13;;;;;;;6.74;100.00;100703.97;4763093;30;20492;-75
2023/12/30 02:08:12;;;;;;;2.53;1.15;;;;;;;6.74;100.00;100703.19;4765837;30;20541;-75
2023/12/30 02:10:37;;;;;;;4.15;1.17;;;;;;;6.55;100.00;100698.28;4761266;30;20578;-75
2023/12/30 02:13:03;;;;;;;5.65;1.20;;;;;;;6.69;100.00;100707.03;4755419;30;20047;-75
2023/12/30 02:15:28;;;;;;;4.60;1.17;;;;;;;6.61;100.00;100705.22;4760777;30;20152;-75
2023/12/30 02:17:56;;;;;;;6.53;1.65;;;;;;;6.64;100.00;100716.44;4763674;30;20110;-75
2023/12/30 02:20:22;;;;;;;7.22;1.25;;;;;;;6.69;100.00;100718.97;4763796;30;20118;-75
2023/12/30 02:22:48;;;;;;;5.53;1.30;;;;;;;6.56;100.00;100720.19;4761028;29;20027;-75
2023/12/30 02:25:14;;;;;;;6.57;2.10;;;;;;;6.66;100.00;100724.41;4762452;30;20095;-75
2023/12/30 02:27:41;;;;;;;6.78;1.42;;;;;;;6.52;100.00;100724.84;4759772;29;20656;-76
2023/12/30 02:30:07;;;;;;;8.20;1.17;;;;;;;6.59;100.00;100727.81;4760330;30;20487;-76
2023/12/30 02:32:32;;;;;;;4.57;1.52;;;;;;;6.53;100.00;100720.09;4764468;30;20050;-76
2023/12/30 02:34:58;;;;;;;3.30;1.02;;;;;;;6.62;100.00;100716.00;4766694;30;20442;-76
2023/12/30 02:37:23;;;;;;;5.82;0.93;;;;;;;6.61;100.00;100722.72;4762283;30;20508;-76
2023/12/30 02:39:48;;;;;;;5.85;1.02;;;;;;;6.46;100.00;100731.81;4762628;30;20035;-76
2023/12/30 02:42:14;;;;;;;3.45;1.00;;;;;;;6.61;100.00;100733.81;4766529;30;20028;-76
2023/12/30 02:44:39;;;;;;;3.88;1.55;;;;;;;6.65;100.00;100734.75;4761992;30;20148;-76
2023/12/30 02:47:04;;;;;;;6.10;1.42;;;;;;;6.43;100.00;100721.38;4762036;30;20216;-76
2023/12/30 02:49:32;;;;;;;9.52;1.60;;;;;;;6.60;100.00;100723.88;4763921;30;20032;-76
2023/12/30 02:52:00;;;;;;;4.40;1.67;;;;;;;6.42;100.00;100714.22;4760809;29;20040;-75
2023/12/30 02:54:26;;;;;;;3.97;1.10;;;;;;;6.42;100.00;100720.59;4763851;30;20047;-75
2023/12/30 02:56:52;;;;;;;9.32;2.13;;;;;;;6.56;100.00;100731.31;4762982;30;20038;-76
2023/12/30 02:59:17;;;;;;;5.88;1.27;;;;;;;6.44;100.00;100734.13;4762041;30;24934;-76
2023/12/30 03:01:42;;;;;;;1.95;0.77;;;;;;;6.48;100.00;100729.50;4762171;30;20036;-75
2023/12/30 03:04:08;;;;;;;12.10;1.55;;;;;;;6.47;100.00;100744.53;4759439;30;20042;-76
2023/12/30 03:06:33;;;;;;;4.63;1.52;;;;;;;6.63;100.00;100747.38;4758664;30;20039;-76
2023/12/30 03:08:59;;;;;;;6.20;1.13;;;;;;;6.42;100.00;100742.81;4766107;30;20502;-76
2023/12/30 03:11:25;;;;;;;3.40;1.80;;;;;;;6.47;100.00;100738.97;4764654;29;20043;-75
2023/12/30 03:13:51;;;;;;;3.58;1.55;;;;;;;6.36;100.00;100737.88;4757074;30;20043;-76
2023/12/30 03:16:16;;;;;;;3.50;1.83;;;;;;;6.28;100.00;100743.22;4762013;30;20483;-76
2023/12/30 03:18:43;;;;;;;3.40;1.27;;;;;;;6.37;100.00;100742.28;4760850;30;20119;-75
2023/12/30 03:21:09;;;;;;;3.55;1.08;;;;;;;6.30;100.00;100746.47;4764602;30;20106;-75
2023/12/30 03:23:36;;;;;;;4.72;1.80;;;;;;;6.39;100.00;100743.53;4769071;30;20058;-76
2023/12/30 03:26:02;;;;;;;3.05;0.98;;;;;;;6.46;100.00;100748.50;4764440;29;20531;-76
2023/12/30 03:28:28;;;;;;;9.63;1.65;;;;;;;6.42;100.00;100745.59;4761566;30;20118;-75
2023/12/30 03:30:53;;;;;;;5.43;0.95;;;;;;;6.44;100.00;100756.38;4767495;29;20527;-75
2023/12/30 03:33:18;;;;;;;4.63;1.40;;;;;;;6.30;100.00;100754.81;4757618;30;20043;-75
2023/12/30 03:35:44;;;;;;;4.47;1.40;;;;;;;6.34;100.00;100745.75;4764054;30;20031;-77
2023/12/30 03:38:09;;;;;;;3.63;1.27;;;;;;;6.30;100.00;100756.75;4765044;30;20434;-76
2023/12/30 03:40:34;;;;;;;2.95;1.10;;;;;;;6.13;100.00;100752.28;4771788;30;20023;-76
2023/12/30 03:43:00;;;;;;;5.45;1.70;;;;;;;6.25;100.00;100759.81;4764077;29;20028;-76
2023/12/30 03:45:26;;;;;;;8.30;1.52;;;;;;;6.09;100.00;100756.94;4761818;30;20171;-76
2023/12/30 03:47:52;;;;;;;5.72;1.17;;;;;;;6.18;100.00;100765.16;4763082;30;20052;-76
2023/12/30 03:50:18;;;;;;;8.07;1.33;;;;;;;6.26;100.00;100766.97;4753288;30;20040;-76
2023/12/30 03:52:43;;;;;;;9.40;1.70;;;;;;;6.16;100.00;100765.50;4759613;30;20055;-76
2023/12/30 03:55:08;;;;;;;7.38;1.83;;;;;;;6.10;100.00;100773.25;4765060;30;20063;-76
2023/12/30 03:57:34;;;;;;;8.80;1.80;;;;;;;6.23;100.00;100768.47;4764113;30;20112;-76
2023/12/30 04:00:00;;;;;;;8.02;1.40;;;;;;;6.25;100.00;100768.94;4756396;30;20031;-76
2023/12/30 04:02:25;;;;;;;9.32;2.05;;;;;;;6.26;100.00;100773.34;4760634;30;20043;-76
2023/12/30 04:04:51;;;;;;;7.28;1.35;;;;;;;6.23;100.00;100768.47;4765797;30;20051;-76
2023/12/30 04:07:16;;;;;;;4.43;1.65;;;;;;;6.26;100.00;100772.53;4761205;30;20542;-76
2023/12/30 04:09:41;;;;;;;4.95;1.50;;;;;;;6.12;100.00;100767.34;4758405;30;20052;-76
2023/12/30 04:12:07;;;;;;;3.85;1.17;;;;;;;6.10;100.00;100766.91;4758862;30;20044;-76
2023/12/30 04:14:32;;;;;;;9.15;1.50;;;;;;;6.13;100.00;100763.41;4757405;30;20065;-76
2023/12/30 04:16:58;;;;;;;10.05;2.10;;;;;;;6.12;100.00;100766.56;4757152;30;20086;-76
2023/12/30 04:19:24;;;;;;;7.32;1.55;;;;;;;6.19;100.00;100773.13;4763199;30;20047;-76
2023/12/30 04:21:50;;;;;;;9.90;2.03;;;;;;;6.23;100.00;100767.69;4762685;30;20038;-76
2023/12/30 04:24:16;;;;;;;9.43;1.48;;;;;;;6.27;100.00;100772.19;4762574;30;20116;-76
2023/12/30 04:26:43;;;;;;;5.85;1.70;;;;;;;6.22;100.00;100785.50;4762714;30;20036;-75
2023/12/30 04:29:09;;;;;;;6.53;1.70;;;;;;;6.16;100.00;100781.38;4766945;30;20542;-76
2023/12/30 04:31:35;;;;;;;5.05;1.35;;;;;;;6.11;100.00;100776.84;4757299;30;20043;-76
2023/12/30 04:34:00;;;;;;;5.25;1.65;;;;;;;6.11;100.00;100776.84;4760355;30;20493;-76
2023/12/30 04:36:25;;;;;;;7.93;1.80;;;;;;;6.20;100.00;100783.09;4758236;30;20656;-76
2023/12/30 04:38:50;;;;;;;8.98;2.25;;;;;;;6.19;100.00;100789.78;4760713;30;20054;-76
2023/12/30 04:41:16;;;;;;;5.82;1.30;;;;;;;6.08;100.00;100772.78;4759532;30;20038;-76
2023/12/30 04:43:41;;;;;;;8.77;1.73;;;;;;;6.16;100.00;100784.94;4761083;30;20042;-76
2023/12/30 04:46:07;;;;;;;8.57;1.33;;;;;;;6.19;100.00;100781.47;4779329;29;20076;-76
2023/12/30 04:48:32;;;;;;;3.80;1.25;;;;;;;6.12;100.00;100792.38;4761124;29;20058;-75
2023/12/30 04:50:57;;;;;;;3.85;1.20;;;;;;;6.18;100.00;100796.53;4758634;30;20039;-75
2023/12/30 04:53:23;;;;;;;7.10;1.40;;;;;;;6.23;100.00;100795.47;4757621;29;20082;-75
2023/12/30 04:55:48;;;;;;;10.23;1.35;;;;;;;6.24;100.00;100784.00;4757224;30;20895;-75
2023/12/30 04:58:14;;;;;;;6.75;1.30;;;;;;;6.25;100.00;100793.16;4758955;30;20063;-75
2023/12/30 05:00:39;;;;;;;7.28;1.48;;;;;;;6.23;100.00;100787.94;4760957;30;20067;-75
2023/12/30 05:03:04;;;;;;;3.55;1.00;;;;;;;6.16;100.00;100782.19;4756515;30;20534;-75
2023/12/30 05:05:30;;;;;;;5.75;1.10;;;;;;;6.18;100.00;100781.84;4759214;30;20458;-75
2023/12/30 05:07:55;;;;;;;7.82;1.30;;;;;;;6.21;100.00;100783.91;4763116;30;20051;-75
2023/12/30 05:10:20;;;;;;;9.07;1.33;;;;;;;6.19;100.00;100780.66;4758478;30;20068;-75
2023/12/30 05:12:46;;;;;;;12.48;1.85;;;;;;;6.10;100.00;100791.91;4752457;30;20038;-75
2023/12/30 05:15:17;;;;;;;4.97;1.65;;;;;;;6.21;100.00;100793.03;4756802;30;20033;-75
2023/12/30 05:17:43;;;;;;;6.88;1.25;;;;;;;6.17;100.00;100792.13;4758202;30;20384;-75
2023/12/30 05:20:10;;;;;;;7.82;1.85;;;;;;;6.17;100.00;100797.66;4755708;30;20411;-75
2023/12/30 05:22:35;;;;;;;9.35;1.55;;;;;;;6.19;100.00;100798.13;4762991;30;20047;-75
2023/12/30 05:25:01;;;;;;;10.50;1.77;;;;;;;6.10;100.00;100803.03;4755070;30;20032;-75
2023/12/30 05:27:26;;;;;;;5.97;1.58;;;;;;;6.12;100.00;100805.47;4755774;30;20028;-75
2023/12/30 05:29:51;;;;;;;6.18;1.45;;;;;;;6.26;100.00;100811.44;4760259;30;20134;-75
2023/12/30 05:32:17;;;;;;;4.80;1.27;;;;;;;6.27;100.00;100818.63;4752808;30;20119;-76
2023/12/30 05:34:42;;;;;;;12.60;2.05;;;;;;;6.17;100.00;100813.53;4761557;30;20085;-75
2023/12/30 05:37:07;;;;;;;8.73;2.72;;;;;;;6.20;100.00;100822.00;4760559;30;20510;-75
2023/12/30 05:39:33;;;;;;;6.70;1.33;;;;;;;6.16;100.00;100823.84;4757756;29;20047;-75
2023/12/30 05:41:58;;;;;;;4.25;1.58;;;;;;;6.12;100.00;100822.94;4755569;30;20483;-75
2023/12/30 05:44:24;;;;;;;8.88;1.67;;;;;;;6.16;100.00;100820.28;4760634;29;20035;-75
2023/12/30 05:46:51;;;;;;;5.60;1.23;;;;;;;6.19;100.00;100823.16;4756437;30;20046;-75
2023/12/30 05:49:16;;;;;;;9.02;1.75;;;;;;;6.11;100.00;100835.19;4762242;29;20062;-75
2023/12/30 05:51:44;;;;;;;6.72;1.55;;;;;;;6.07;100.00;100834.28;4765175;30;20035;-75
2023/12/30 05:54:10;;;;;;;11.20;1.88;;;;;;;6.10;100.00;100842.72;4755884;29;20440;-75
2023/12/30 05:56:36;;;;;;;5.03;2.38;;;;;;;6.07;100.00;100834.28;4762984;30;20035;-75
2023/12/30 05:59:02;;;;;;;5.45;1.30;;;;;;;6.10;100.00;100839.16;4764980;30;20056;-76
2023/12/30 06:01:27;;;;;;;6.63;1.77;;;;;;;6.03;100.00;100830.56;4760278;30;20033;-75
2023/12/30 06:03:53;;;;;;;4.85;1.42;;;;;;;6.10;100.00;100841.94;4759483;29;20036;-75
2023/12/30 06:06:19;;;;;;;4.60;1.45;;;;;;;6.08;100.00;100839.50;4756092;30;20035;-76
2023/12/30 06:08:45;;;;;;;7.97;2.28;;;;;;;6.10;100.00;100841.94;4762047;30;20160;-76
2023/12/30 06:11:11;;;;;;;11.10;2.72;;;;;;;5.98;100.00;100856.63;4766776;30;20048;-76
2023/12/30 06:13:39;;;;;;;6.18;1.48;;;;;;;5.91;100.00;100857.16;4759183;30;20521;-76
2023/12/30 06:16:05;;;;;;;3.45;1.67;;;;;;;5.97;100.00;100859.78;4762797;30;20433;-76
2023/12/30 06:18:30;;;;;;;5.50;1.30;;;;;;;6.01;100.00;100855.13;4777518;29;20505;-76
2023/12/30 06:20:57;;;;;;;7.75;1.58;;;;;;;5.80;100.00;100864.34;4764829;30;20027;-76
2023/12/30 06:23:22;;;;;;;8.73;1.52;;;;;;;5.92;100.00;100857.97;4757371;30;20032;-76
2023/12/30 06:25:48;;;;;;;7.40;1.40;;;;;;;5.83;100.00;100874.75;4760490;30;20644;-75
2023/12/30 06:28:13;;;;;;;5.18;1.05;;;;;;;5.95;100.00;100870.41;4766963;30;20495;-76
2023/12/30 06:30:38;;;;;;;8.63;1.90;;;;;;;5.85;100.00;100880.78;4761042;30;20040;-76
2023/12/30 06:33:06;;;;;;;7.60;2.08;;;;;;;5.83;100.00;100871.19;4752463;30;20078;-76
2023/12/30 06:35:35;;;;;;;5.95;1.60;;;;;;;5.86;100.00;100865.75;4768513;30;20070;-75
2023/12/30 06:38:00;;;;;;;5.32;1.40;;;;;;;5.86;100.00;100865.75;4761182;30;20055;-76
2023/12/30 06:40:26;;;;;;;9.35;2.03;;;;;;;5.83;100.00;100866.44;4762203;30;20070;-76
2023/12/30 06:42:52;;;;;;;9.77;2.35;;;;;;;5.91;100.00;100870.25;4759362;30;20049;-75
2023/12/30 06:45:17;;;;;;;4.70;1.63;;;;;;;5.86;100.00;100874.09;4763220;30;20031;-75
2023/12/30 06:47:43;;;;;;;2.38;1.70;;;;;;;5.85;100.00;100864.13;4758676;30;20130;-76
2023/12/30 06:50:10;;;;;;;3.22;1.55;;;;;;;5.86;100.00;100879.63;4765918;30;20090;-76
2023/12/30 06:52:36;;;;;;;6.82;2.00;;;;;;;5.91;100.00;100873.84;4757594;30;20040;-76
2023/12/30 06:55:01;;;;;;;9.98;1.90;;;;;;;5.83;100.00;100877.53;4758126;30;20050;-76
2023/12/30 06:57:26;;;;;;;5.38;1.10;;;;;;;5.88;100.00;100874.56;4764077;30;20054;-77
2023/12/30 06:59:52;;;;;;;3.50;1.02;;;;;;;6.01;100.00;100875.41;4770683;30;20050;-76
2023/12/30 07:02:17;;;;;;;3.25;1.42;;;;;;;5.94;100.00;100877.88;4763050;30;20086;-76
2023/12/30 07:04:42;;;;;;;3.80;1.05;;;;;;;6.02;100.00;100877.00;4761228;30;20043;-76
2023/12/30 07:07:08;;;;;;;5.20;1.67;;;;;;;5.90;100.00;100891.69;4760840;30;20419;-75
2023/12/30 07:09:33;;;;;;;4.72;1.38;;;;;;;5.84;100.00;100893.06;4756621;30;20511;-76
2023/12/30 07:11:58;;;;;;;10.55;1.60;;;;;;;5.83;100.00;100891.44;4752804;30;20123;-75
2023/12/30 07:14:24;;;;;;;4.22;1.27;;;;;;;5.78;100.00;100890.84;4759706;30;20476;-76
2023/12/30 07:16:49;;;;;;;5.40;1.20;;;;;;;5.88;100.00;100893.16;4751412;30;20593;-76
2023/12/30 07:19:15;;;;;;;6.13;1.30;;;;;;;5.88;100.00;100891.22;4759929;30;20032;-76
2023/12/30 07:21:41;;;;;;;4.32;1.23;;;;;;;5.78;100.00;100894.44;4764773;30;20102;-76
2023/12/30 07:24:06;;;;;;;8.18;1.33;;;;;;;5.71;100.00;100896.97;4763652;30;20039;-76
2023/12/30 07:26:35;;;;;;;5.63;1.58;;;;;;;5.88;100.00;100899.56;4760693;30;20089;-75
2023/12/30 07:29:00;;;;;;;7.40;1.70;;;;;;;5.67;100.00;100907.13;4758852;30;20048;-75
2023/12/30 07:31:26;;;;;;;11.43;1.73;;;;;;;5.75;100.00;100920.13;4756513;30;20039;-75
2023/12/30 07:33:51;;;;;;;5.53;1.75;;;;;;;5.70;100.00;100921.16;4767770;30;20062;-75
2023/12/30 07:36:17;;;;;;;9.98;1.50;;;;;;;5.70;100.00;100926.69;4762349;30;20418;-75
2023/12/30 07:38:43;;;;;;;3.85;1.30;;;;;;;5.67;100.00;100929.34;4761833;30;20036;-75
2023/12/30 07:41:08;;;;;;;7.63;1.27;;;;;;;5.81;100.00;100935.41;4760247;30;20119;-75
2023/12/30 07:43:34;;;;;;;7.30;1.67;;;;;;;5.84;100.00;100934.72;4759028;30;20111;-75
2023/12/30 07:45:59;;;;;;;6.75;2.13;;;;;;;5.60;100.00;100938.25;4765046;30;20498;-75
2023/12/30 07:48:29;;;;;;;3.38;1.60;;;;;;;5.67;100.00;100948.78;4756959;30;20095;-75
2023/12/30 07:50:54;;;;;;;6.38;2.00;;;;;;;5.79;100.00;100942.47;4756176;30;20409;-76
2023/12/30 07:53:19;;;;;;;6.18;1.15;;;;;;;5.79;100.00;100946.03;4761787;30;20035;-76
2023/12/30 07:55:45;;;;;;;3.17;1.20;;;;;;;5.83;100.00;100946.97;4759284;30;20047;-76
2023/12/30 07:58:10;;;;;;;2.53;1.35;;;;;;;5.68;100.00;100958.75;4764874;30;20050;-76
2023/12/30 08:00:35;;;;;;;6.72;1.40;;;;;;;5.74;100.00;100954.59;4759100;30;20040;-76
2023/12/30 08:03:01;;;;;;;6.45;1.80;;;;;;;5.77;100.00;100967.78;4752763;30;20146;-75
2023/12/30 08:05:26;;;;;;;3.72;1.70;;;;;;;5.78;100.00;100972.22;4757322;30;20043;-76
2023/12/30 08:07:51;;;;;;;3.40;1.17;;;;;;;5.67;100.00;100968.22;4765320;30;20031;-76
2023/12/30 08:10:18;;;;;;;5.10;1.55;;;;;;;5.80;100.00;100969.91;4755718;30;20044;-75
2023/12/30 08:12:43;;;;;;;5.07;1.60;;;;;;;5.75;100.00;100970.09;4763164;30;20535;-75
2023/12/30 08:15:10;;;;;;;7.80;1.67;;;;;;;5.69;100.00;100971.47;4759019;30;20062;-76
2023/12/30 08:17:36;;;;;;;7.13;2.47;;;;;;;5.67;100.00;100979.34;4754819;30;20570;-76
2023/12/30 08:20:02;;;;;;;8.60;1.83;;;;;;;5.74;100.00;100989.91;4761462;30;20035;-75
2023/12/30 08:22:28;;;;;;;6.95;1.77;;;;;;;5.84;100.00;100983.91;4753818;30;20035;-75
2023/12/30 08:24:54;;;;;;;6.03;1.45;;;;;;;5.81;100.00;100993.75;4758967;30;20479;-76
2023/12/30 08:27:19;;;;;;;7.80;1.70;;;;;;;5.84;100.00;100995.84;4752131;30;20047;-75
2023/12/30 08:29:44;;;;;;;8.63;1.90;;;;;;;5.87;100.00;101003.47;4754507;30;20044;-76
2023/12/30 08:32:10;;;;;;;8.55;2.13;;;;;;;5.82;100.00;101000.94;4756206;30;20036;-75
2023/12/30 08:34:35;;;;;;;5.95;1.92;;;;;;;5.80;100.00;101006.00;4756506;30;20050;-76
2023/12/30 08:37:07;;;;;;;5.55;2.10;;;;;;;5.89;100.00;101015.06;4759841;30;20088;-75
2023/12/30 08:39:33;;;;;;;9.25;2.22;;;;;;;5.88;100.00;101012.63;4754189;30;20447;-75
2023/12/30 08:41:58;;;;;;;7.93;2.10;;;;;;;5.90;100.00;101013.91;4758169;30;20513;-77
2023/12/30 08:44:26;;;;;;;5.75;2.00;;;;;;;5.89;100.00;101015.06;4751622;30;20110;-76
2023/12/30 08:46:52;;;;;;;6.07;2.20;;;;;;;5.89;100.00;101017.84;4759703;30;20046;-76
2023/12/30 08:49:17;;;;;;;5.40;2.20;;;;;;;5.90;100.00;101016.69;4753104;30;20052;-75
2023/12/30 08:51:43;;;;;;;5.50;2.72;;;;;;;5.89;100.00;101009.50;4754392;30;20068;-76
2023/12/30 08:54:08;;;;;;;11.77;2.65;;;;;;;5.89;100.00;101028.94;4753988;30;20040;-75
2023/12/30 08:56:33;;;;;;;8.40;2.90;;;;;;;5.87;100.00;101034.03;4758405;30;20046;-75
2023/12/30 08:59:00;;;;;;;4.22;2.33;;;;;;;5.90;100.00;101033.38;4758999;30;20096;-75
2023/12/30 09:01:25;;;;;;;11.65;2.95;;;;;;;5.86;100.00;101043.53;4754641;30;20024;-74
2023/12/30 09:03:51;;;;;;;5.25;2.33;;;;;;;6.27;100.00;101041.81;4760499;30;20043;-74
2023/12/30 09:06:16;;;;;;;5.10;2.00;;;;;;;6.29;100.00;101033.94;4761322;30;20047;-74
2023/12/30 09:08:41;;;;;;;6.40;2.17;;;;;;;6.20;100.00;101038.81;4756091;30;20040;-73
2023/12/30 09:11:20;;;;;;;4.70;2.40;;;;;;;6.29;100.00;101033.94;4754450;30;20094;-74
2023/12/30 09:13:46;;;;;;;7.50;2.60;;;;;;;6.33;100.00;101027.72;4754792;30;20097;-74
2023/12/30 09:16:12;;;;;;;5.45;3.70;;;;;;;6.33;100.00;101033.28;4752778;30;20052;-75
2023/12/30 09:18:37;;;;;;;10.20;3.67;;;;;;;6.22;100.00;101030.94;4754075;30;20035;-77
2023/12/30 09:21:03;;;;;;;7.15;3.55;;;;;;;6.21;100.00;101032.06;4754925;30;20032;-76
2023/12/30 09:23:32;;;;;;;10.80;4.25;;;;;;;6.24;100.00;101030.56;4758857;30;20676;-76
2023/12/30 09:25:57;;;;;;;8.30;4.18;;;;;;;6.34;100.00;101044.03;4752766;30;20384;-76
2023/12/30 09:28:22;;;;;;;12.95;5.05;;;;;;;6.26;100.00;101040.22;4751699;30;20064;-76
2023/12/30 09:30:48;;;;;;;12.05;6.22;;;;;;;6.38;100.00;101046.94;4754129;30;20028;-76
2023/12/30 09:33:13;;;;;;;12.50;5.93;;;;;;;6.41;100.00;101049.00;4753065;30;20059;-76
2023/12/30 09:35:38;;;;;;;14.30;5.25;;;;;;;6.34;100.00;101051.56;4760289;30;20032;-77
2023/12/30 09:38:04;;;;;;;17.85;6.50;;;;;;;6.34;100.00;101049.59;4754948;30;20043;-77
2023/12/30 09:40:29;;;;;;;13.45;5.68;;;;;;;6.21;100.00;101054.31;4749138;30;20474;-77
2023/12/30 09:43:03;;;;;;;12.32;5.10;;;;;;;6.18;100.00;101055.00;4757051;30;20484;-77
2023/12/30 09:45:29;;;;;;;11.15;4.80;;;;;;;6.33;100.00;101058.28;4757174;30;20067;-77
2023/12/30 09:47:58;;;;;;;11.35;4.88;;;;;;;6.44;100.00;101065.03;4752350;30;20047;-76
2023/12/30 09:50:23;;;;;;;8.25;3.75;;;;;;;6.37;100.00;101067.56;4756315;30;20759;-75
2023/12/30 09:52:48;;;;;;;13.82;3.72;;;;;;;6.35;100.00;101064.31;4755253;30;20044;-75
2023/12/30 09:55:14;;;;;;;9.98;4.32;;;;;;;6.40;100.00;101073.22;4757209;30;20043;-75
2023/12/30 09:57:40;;;;;;;7.05;3.13;;;;;;;6.39;100.00;101066.06;4757373;30;20590;-75
2023/12/30 10:00:07;;;;;;;9.15;3.58;;;;;;;6.42;100.00;101064.56;4755676;30;20554;-75
2023/12/30 10:02:34;;;;;;;10.68;4.15;;;;;;;6.48;100.00;101074.28;4756496;30;20036;-75
2023/12/30 10:05:00;;;;;;;10.77;3.63;;;;;;;6.49;100.00;101070.34;4753605;30;20047;-75
2023/12/30 10:07:26;;;;;;;8.88;3.20;;;;;;;6.51;100.00;101066.09;4759683;30;20147;-75
2023/12/30 10:09:51;;;;;;;12.88;3.25;;;;;;;6.61;100.00;101070.38;4760381;30;20046;-75
2023/12/30 10:12:18;;;;;;;12.07;5.22;;;;;;;6.58;100.00;101070.22;4756083;30;20035;-75
2023/12/30 10:14:43;;;;;;;12.32;3.08;;;;;;;6.59;100.00;101064.34;4761926;29;20040;-76
2023/12/30 10:17:09;;;;;;;11.10;3.17;;;;;;;6.63;100.00;101072.81;4755485;30;20496;-76
2023/12/30 10:19:35;;;;;;;10.02;2.55;;;;;;;6.60;100.00;101073.47;4764718;29;20068;-76
2023/12/30 10:22:01;;;;;;;8.15;2.60;;;;;;;6.65;100.00;101073.28;4761841;30;20040;-76
2023/12/30 10:24:26;;;;;;;7.30;2.75;;;;;;;6.68;100.00;101069.78;4763849;29;20079;-76
2023/12/30 10:26:51;;;;;;;10.20;2.25;;;;;;;6.69;100.00;101072.22;4761466;30;20036;-76
2023/12/30 10:29:17;;;;;;;9.18;2.50;;;;;;;6.70;100.00;101065.53;4754565;30;20040;-76
2023/12/30 10:31:42;;;;;;;8.55;2.38;;;;;;;6.75;100.00;101064.47;4757616;30;20070;-76
2023/12/30 10:34:08;;;;;;;9.18;2.30;;;;;;;6.76;100.00;101068.06;4761027;30;20046;-76
2023/12/30 10:36:33;;;;;;;6.45;2.38;;;;;;;6.78;100.00;101071.31;4763676;30;20036;-76
2023/12/30 10:39:02;;;;;;;8.13;2.70;;;;;;;6.91;100.00;101072.91;4758949;30;20035;-76
2023/12/30 10:41:27;;;;;;;5.43;2.30;;;;;;;7.00;100.00;101090.34;4752566;30;20672;-76
2023/12/30 10:43:53;;;;;;;8.75;2.75;;;;;;;7.07;100.00;101079.41;4758193;30;20039;-76
2023/12/30 10:46:19;;;;;;;12.30;2.78;;;;;;;7.12;100.00;101079.16;4749805;30;20036;-77
2023/12/30 10:49:03;;;;;;;10.48;3.42;;;;;;;7.13;100.00;101074.44;4751130;30;20055;-77
2023/12/30 10:51:31;;;;;;;5.35;2.30;;;;;;;9.85;100.00;101083.50;4762120;30;20082;-77
2023/12/30 10:54:04;;;;;;;11.60;2.95;;;;;;;11.09;100.00;101077.75;4757056;30;20047;-78
2023/12/30 10:56:39;;;;;;;9.32;2.45;;;;;;;10.35;100.00;101078.91;4755308;30;20043;-78
2023/12/30 10:59:07;;;;;;;9.10;2.30;;;;;;;8.44;100.00;101070.25;4757575;30;20075;-78
2023/12/30 11:01:33;;;;;;;6.57;2.22;;;;;;;8.07;100.00;101072.38;4755278;30;20052;-78
2023/12/30 11:04:01;;;;;;;8.00;2.00;;;;;;;7.79;100.00;101069.63;4760031;30;20031;-77
2023/12/30 11:06:37;;;;;;;8.82;2.00;;;;;;;7.70;100.00;101065.00;4758169;30;20031;-78
2023/12/30 11:09:09;;;;;;;8.15;2.38;;;;;;;7.61;100.00;101072.72;4754180;30;20036;-75
2023/12/30 11:11:39;;;;;;;11.27;2.30;;;;;;;7.49;100.00;101073.53;4752495;30;20043;-76
2023/12/30 11:14:11;;;;;;;9.32;2.80;;;;;;;7.50;100.00;101075.16;4758293;30;20051;-76
2023/12/30 11:16:36;;;;;;;10.88;2.45;;;;;;;7.43;100.00;101063.81;4756567;30;20439;-76
2023/12/30 11:19:04;;;;;;;6.47;2.78;;;;;;;7.37;100.00;101070.78;4753621;30;20126;-75